Time;durP1;ratioP1;P1;durP2;ratioP2;P2;SDS_P1;SDS_P2;PMS_P1;PMS_P2;Temp;Humidity;BMP_temperature;BMP_pressure;BME280_temperature;BME280_humidity;BME280_pressure;Samples;Min_cycle;Max_cycle;Signal;HPM_P1;HPM_P2
2022/03/11 00:00:26;;;;;;;;;29.25;28.50;;;;;;;;5070067;27;51154;-64
2022/03/11 00:02:51;;;;;;;;;29.75;28.00;;;;;;;;5070091;28;51047;-63
2022/03/11 00:05:16;;;;;;;;;27.25;26.75;;;;;;;;5071421;27;52028;-64
2022/03/11 00:07:42;;;;;;;;;35.75;33.50;;;;;;;;5071239;28;50858;-64
2022/03/11 00:10:07;;;;;;;;;29.75;27.75;;;;;;;;5070619;27;51369;-64
2022/03/11 00:12:35;;;;;;;;;28.50;27.75;;;;;;;;5070603;27;50950;-65
2022/03/11 00:15:00;;;;;;;;;28.50;26.25;;;;;;;;5070692;27;51289;-64
2022/03/11 00:17:25;;;;;;;;;28.50;27.25;;;;;;;;5068587;27;51022;-65
2022/03/11 00:19:53;;;;;;;;;25.25;25.00;;;;;;;;5072053;27;52516;-64
2022/03/11 00:22:19;;;;;;;;;26.00;23.00;;;;;;;;5072298;27;51368;-65
2022/03/11 00:24:44;;;;;;;;;30.00;27.75;;;;;;;;5071937;28;51302;-65
2022/03/11 00:27:09;;;;;;;;;29.50;27.25;;;;;;;;5072673;28;51156;-64
2022/03/11 00:29:34;;;;;;;;;28.00;25.50;;;;;;;;5075929;27;52193;-65
2022/03/11 00:32:00;;;;;;;;;25.00;23.75;;;;;;;;5072372;28;51207;-63
2022/03/11 00:34:25;;;;;;;;;26.00;26.00;;;;;;;;5061887;27;51175;-64
2022/03/11 00:36:51;;;;;;;;;26.00;23.25;;;;;;;;5075283;28;50887;-64
2022/03/11 00:39:16;;;;;;;;;28.75;26.75;;;;;;;;5075305;28;51075;-64
2022/03/11 00:41:41;;;;;;;;;33.75;29.25;;;;;;;;5074536;27;51084;-64
2022/03/11 00:44:07;;;;;;;;;25.50;23.00;;;;;;;;5075793;27;50949;-64
2022/03/11 00:46:32;;;;;;;;;24.00;23.25;;;;;;;;5074605;28;50996;-64
2022/03/11 00:48:57;;;;;;;;;25.50;24.00;;;;;;;;5068941;27;51336;-64
2022/03/11 00:51:23;;;;;;;;;26.25;25.00;;;;;;;;5064772;27;50918;-65
2022/03/11 00:53:48;;;;;;;;;26.00;25.00;;;;;;;;5065524;28;51008;-64
2022/03/11 00:56:13;;;;;;;;;27.00;27.00;;;;;;;;5074292;27;51336;-64
2022/03/11 00:58:38;;;;;;;;;26.00;25.25;;;;;;;;5066170;27;51717;-64
2022/03/11 01:01:03;;;;;;;;;24.00;22.25;;;;;;;;5066063;27;51083;-64
2022/03/11 01:03:29;;;;;;;;;23.00;21.50;;;;;;;;5063480;27;51013;-64
2022/03/11 01:05:54;;;;;;;;;26.25;24.25;;;;;;;;5066141;27;51413;-65
2022/03/11 01:08:19;;;;;;;;;24.25;23.25;;;;;;;;5068972;27;51982;-64
2022/03/11 01:10:44;;;;;;;;;24.00;23.00;;;;;;;;5065693;27;50929;-63
2022/03/11 01:13:10;;;;;;;;;22.50;21.75;;;;;;;;5077420;27;51790;-65
2022/03/11 01:15:35;;;;;;;;;26.00;23.75;;;;;;;;5073287;27;51425;-63
2022/03/11 01:18:00;;;;;;;;;22.50;20.50;;;;;;;;5077522;27;51149;-63
2022/03/11 01:20:25;;;;;;;;;25.50;24.50;;;;;;;;5081572;27;51072;-63
2022/03/11 01:22:51;;;;;;;;;24.50;23.75;;;;;;;;5060734;27;51084;-63
2022/03/11 01:25:16;;;;;;;;;22.25;20.75;;;;;;;;5070238;27;51362;-63
2022/03/11 01:27:41;;;;;;;;;24.25;23.50;;;;;;;;5063332;27;52083;-63
2022/03/11 01:30:09;;;;;;;;;24.25;24.25;;;;;;;;5071131;27;51476;-63
2022/03/11 01:32:34;;;;;;;;;26.00;24.75;;;;;;;;5068619;27;51144;-64
2022/03/11 01:34:59;;;;;;;;;18.00;16.75;;;;;;;;5074883;27;51380;-63
2022/03/11 01:37:24;;;;;;;;;25.75;24.00;;;;;;;;5075450;27;51978;-63
2022/03/11 01:39:50;;;;;;;;;22.75;21.25;;;;;;;;5073906;28;51009;-63
2022/03/11 01:42:15;;;;;;;;;24.50;21.50;;;;;;;;5069483;27;50936;-63
2022/03/11 01:44:41;;;;;;;;;26.00;25.00;;;;;;;;5075480;27;50965;-63
2022/03/11 01:47:07;;;;;;;;;20.50;19.00;;;;;;;;5074425;27;51836;-63
2022/03/11 01:49:32;;;;;;;;;21.25;20.00;;;;;;;;5072556;28;50859;-64
2022/03/11 01:51:57;;;;;;;;;25.25;20.75;;;;;;;;5072453;28;51160;-63
2022/03/11 01:54:23;;;;;;;;;23.75;22.50;;;;;;;;5074450;27;52624;-64
2022/03/11 01:56:48;;;;;;;;;30.50;24.25;;;;;;;;5061449;27;51228;-64
2022/03/11 01:59:13;;;;;;;;;20.25;19.00;;;;;;;;5081201;27;50969;-64
2022/03/11 02:01:39;;;;;;;;;26.25;24.00;;;;;;;;5074269;27;50944;-65
2022/03/11 02:04:04;;;;;;;;;22.25;20.50;;;;;;;;5065297;28;52741;-64
2022/03/11 02:06:29;;;;;;;;;19.25;19.00;;;;;;;;5073707;28;52108;-64
2022/03/11 02:08:55;;;;;;;;;25.00;24.25;;;;;;;;5106126;27;51156;-64
2022/03/11 02:11:21;;;;;;;;;23.00;21.00;;;;;;;;5074321;27;50969;-63
2022/03/11 02:13:51;;;;;;;;;24.00;22.75;;;;;;;;5072720;27;51972;-63
2022/03/11 02:16:17;;;;;;;;;27.50;25.25;;;;;;;;5068458;27;51691;-64
2022/03/11 02:18:43;;;;;;;;;29.75;27.50;;;;;;;;5072929;27;51169;-64
2022/03/11 02:21:09;;;;;;;;;26.00;24.50;;;;;;;;5074302;28;51670;-64
2022/03/11 02:23:47;;;;;;;;;31.00;26.50;;;;;;;;5073827;28;50894;-64
2022/03/11 02:26:14;;;;;;;;;25.25;24.50;;;;;;;;5072937;27;52257;-65
2022/03/11 02:28:40;;;;;;;;;26.00;24.00;;;;;;;;5071261;27;53359;-65
2022/03/11 02:31:05;;;;;;;;;25.75;22.00;;;;;;;;5070780;27;51257;-65
2022/03/11 02:33:30;;;;;;;;;25.75;24.75;;;;;;;;5073129;27;51330;-65
2022/03/11 02:35:56;;;;;;;;;21.25;21.25;;;;;;;;5073623;27;51255;-65
2022/03/11 02:38:21;;;;;;;;;13.75;13.75;;;;;;;;5073233;27;51014;-65
2022/03/11 02:40:46;;;;;;;;;25.50;25.00;;;;;;;;5073683;28;51475;-64
2022/03/11 02:43:12;;;;;;;;;27.25;25.50;;;;;;;;5072223;28;51327;-64
2022/03/11 02:45:37;;;;;;;;;24.25;21.50;;;;;;;;5072098;28;53714;-65
2022/03/11 02:48:02;;;;;;;;;26.75;25.25;;;;;;;;5070291;27;51678;-64
2022/03/11 02:50:27;;;;;;;;;27.00;25.50;;;;;;;;5067737;27;51172;-64
2022/03/11 02:52:53;;;;;;;;;23.25;22.75;;;;;;;;5073097;28;50796;-64
2022/03/11 02:55:18;;;;;;;;;19.00;19.00;;;;;;;;5073701;28;51967;-64
2022/03/11 02:57:43;;;;;;;;;31.75;26.25;;;;;;;;5074277;27;51097;-65
2022/03/11 03:00:09;;;;;;;;;25.00;25.00;;;;;;;;5068890;27;51138;-66
2022/03/11 03:02:34;;;;;;;;;25.75;25.50;;;;;;;;5066647;27;51098;-65
2022/03/11 03:05:01;;;;;;;;;22.00;20.50;;;;;;;;5058249;27;52850;-65
2022/03/11 03:07:26;;;;;;;;;25.50;21.25;;;;;;;;5058749;27;51148;-65
2022/03/11 03:09:52;;;;;;;;;22.25;19.50;;;;;;;;5073053;27;51326;-65
2022/03/11 03:12:17;;;;;;;;;23.00;18.50;;;;;;;;5074172;28;51004;-65
2022/03/11 03:14:42;;;;;;;;;25.25;23.50;;;;;;;;5068643;27;51243;-65
2022/03/11 03:17:07;;;;;;;;;22.75;22.25;;;;;;;;5070797;28;51165;-65
2022/03/11 03:19:35;;;;;;;;;27.50;23.50;;;;;;;;5070503;27;51170;-65
2022/03/11 03:22:00;;;;;;;;;22.50;21.75;;;;;;;;5073920;27;50879;-65
2022/03/11 03:24:26;;;;;;;;;27.25;24.50;;;;;;;;5069146;27;51898;-65
2022/03/11 03:26:51;;;;;;;;;22.50;20.25;;;;;;;;5072164;28;51089;-65
2022/03/11 03:29:16;;;;;;;;;30.50;26.25;;;;;;;;5069747;27;51143;-65
2022/03/11 03:31:41;;;;;;;;;22.75;21.50;;;;;;;;5066178;28;51348;-65
2022/03/11 03:34:06;;;;;;;;;23.00;21.50;;;;;;;;5064772;27;52183;-65
2022/03/11 03:36:32;;;;;;;;;22.25;20.00;;;;;;;;5071876;27;51009;-64
2022/03/11 03:38:57;;;;;;;;;21.25;19.25;;;;;;;;5068806;27;52719;-64
2022/03/11 03:41:22;;;;;;;;;20.75;20.50;;;;;;;;5073186;27;51366;-64
2022/03/11 03:43:48;;;;;;;;;20.50;19.50;;;;;;;;5070140;28;51137;-64
2022/03/11 03:46:14;;;;;;;;;20.50;20.00;;;;;;;;5072597;27;51215;-65
2022/03/11 03:48:39;;;;;;;;;23.25;21.00;;;;;;;;5070745;27;51048;-65
2022/03/11 03:51:05;;;;;;;;;29.50;24.50;;;;;;;;5064299;28;51452;-65
2022/03/11 03:53:30;;;;;;;;;22.00;20.25;;;;;;;;5067741;27;52099;-65
2022/03/11 03:55:55;;;;;;;;;25.25;24.25;;;;;;;;5065290;27;51009;-65
2022/03/11 03:58:20;;;;;;;;;23.50;21.75;;;;;;;;5069936;27;51181;-65
2022/03/11 04:00:46;;;;;;;;;21.00;20.50;;;;;;;;5069681;27;51207;-65
2022/03/11 04:03:11;;;;;;;;;20.75;18.75;;;;;;;;5068918;27;53327;-66
2022/03/11 04:05:37;;;;;;;;;23.00;21.00;;;;;;;;5071008;27;51101;-65
2022/03/11 04:08:02;;;;;;;;;22.00;21.50;;;;;;;;5072956;28;51166;-65
2022/03/11 04:10:28;;;;;;;;;17.00;16.00;;;;;;;;5064745;27;51178;-65
2022/03/11 04:12:54;;;;;;;;;18.00;16.50;;;;;;;;5069853;28;52134;-65
2022/03/11 04:15:20;;;;;;;;;19.00;19.00;;;;;;;;5069121;27;51178;-65
2022/03/11 04:17:45;;;;;;;;;23.25;22.50;;;;;;;;5071839;28;51090;-66
2022/03/11 04:20:11;;;;;;;;;25.25;24.00;;;;;;;;5069712;27;51326;-65
2022/03/11 04:22:43;;;;;;;;;24.00;23.75;;;;;;;;5069950;27;51218;-64
2022/03/11 04:25:09;;;;;;;;;19.75;18.25;;;;;;;;5050097;27;51148;-65
2022/03/11 04:27:34;;;;;;;;;23.75;20.75;;;;;;;;5072665;28;51122;-65
2022/03/11 04:29:59;;;;;;;;;20.25;19.50;;;;;;;;5062770;27;51357;-65
2022/03/11 04:32:24;;;;;;;;;16.50;16.50;;;;;;;;5069024;27;51109;-65
2022/03/11 04:34:50;;;;;;;;;20.50;20.50;;;;;;;;5067085;27;51144;-65
2022/03/11 04:37:15;;;;;;;;;22.50;21.50;;;;;;;;5072071;28;51190;-65
2022/03/11 04:39:41;;;;;;;;;23.00;20.00;;;;;;;;5065569;27;51248;-65
2022/03/11 04:42:06;;;;;;;;;22.50;21.00;;;;;;;;5069964;27;51129;-65
2022/03/11 04:44:32;;;;;;;;;19.00;18.00;;;;;;;;5068146;27;51166;-65
2022/03/11 04:46:57;;;;;;;;;23.75;22.00;;;;;;;;5072696;27;51052;-65
2022/03/11 04:49:22;;;;;;;;;23.00;20.75;;;;;;;;5069311;27;51102;-65
2022/03/11 04:51:47;;;;;;;;;23.00;21.50;;;;;;;;5072096;28;51032;-66
2022/03/11 04:54:12;;;;;;;;;22.00;21.00;;;;;;;;5069451;28;51129;-66
2022/03/11 04:56:38;;;;;;;;;23.50;22.00;;;;;;;;5062887;27;51257;-66
2022/03/11 04:59:03;;;;;;;;;22.00;19.00;;;;;;;;5077661;27;51266;-66
2022/03/11 05:01:28;;;;;;;;;19.50;17.75;;;;;;;;5071476;27;51169;-66
2022/03/11 05:03:53;;;;;;;;;17.50;16.75;;;;;;;;5068436;27;51173;-66
2022/03/11 05:06:19;;;;;;;;;22.00;20.50;;;;;;;;5071857;27;51300;-65
2022/03/11 05:08:44;;;;;;;;;20.00;17.00;;;;;;;;5070024;28;51397;-66
2022/03/11 05:11:10;;;;;;;;;18.25;18.25;;;;;;;;5070554;27;52998;-66
2022/03/11 05:13:35;;;;;;;;;19.50;19.25;;;;;;;;5071829;28;50883;-66
2022/03/11 05:16:00;;;;;;;;;19.25;17.00;;;;;;;;5066627;27;51363;-65
2022/03/11 05:18:25;;;;;;;;;19.75;17.00;;;;;;;;5074221;27;51193;-65
2022/03/11 05:20:51;;;;;;;;;20.75;18.50;;;;;;;;5073445;27;51906;-66
2022/03/11 05:23:16;;;;;;;;;19.50;17.50;;;;;;;;5073364;27;51197;-65
2022/03/11 05:25:41;;;;;;;;;17.50;16.25;;;;;;;;5074884;28;51175;-65
2022/03/11 05:28:08;;;;;;;;;16.50;16.00;;;;;;;;5074433;27;51123;-65
2022/03/11 05:30:34;;;;;;;;;16.75;16.00;;;;;;;;5060428;27;51380;-65
2022/03/11 05:33:00;;;;;;;;;14.75;14.00;;;;;;;;5073614;27;51080;-65
2022/03/11 05:35:25;;;;;;;;;15.75;14.75;;;;;;;;5073644;27;51180;-65
2022/03/11 05:37:50;;;;;;;;;14.25;13.75;;;;;;;;5073805;27;51197;-66
2022/03/11 05:40:15;;;;;;;;;14.00;13.50;;;;;;;;5074520;28;51192;-66
2022/03/11 05:42:41;;;;;;;;;16.00;15.25;;;;;;;;5073959;28;51068;-66
2022/03/11 05:45:07;;;;;;;;;13.25;12.00;;;;;;;;5072553;27;51110;-66
2022/03/11 05:47:32;;;;;;;;;12.75;11.75;;;;;;;;5073934;27;51171;-67
2022/03/11 05:49:58;;;;;;;;;14.00;13.00;;;;;;;;5074146;27;51095;-66
2022/03/11 05:52:23;;;;;;;;;15.00;14.50;;;;;;;;5070865;27;51376;-67
2022/03/11 05:54:48;;;;;;;;;15.25;13.75;;;;;;;;5074848;27;50948;-66
2022/03/11 05:57:14;;;;;;;;;16.25;15.75;;;;;;;;5072090;27;51427;-66
2022/03/11 05:59:39;;;;;;;;;17.75;15.75;;;;;;;;5083059;27;53830;-66
2022/03/11 06:02:04;;;;;;;;;13.00;13.00;;;;;;;;5071274;27;51183;-66
2022/03/11 06:04:30;;;;;;;;;14.75;13.00;;;;;;;;5073847;28;51043;-69
2022/03/11 06:06:55;;;;;;;;;12.75;12.00;;;;;;;;5074702;27;51077;-66
2022/03/11 06:09:20;;;;;;;;;13.25;13.00;;;;;;;;5072920;27;51386;-65
2022/03/11 06:11:45;;;;;;;;;13.25;11.00;;;;;;;;5073757;27;51248;-65
2022/03/11 06:14:11;;;;;;;;;9.25;9.25;;;;;;;;5073293;27;51417;-65
2022/03/11 06:16:36;;;;;;;;;15.00;12.75;;;;;;;;5073870;27;51074;-65
2022/03/11 06:19:02;;;;;;;;;16.00;16.00;;;;;;;;5074793;28;50992;-66
2022/03/11 06:21:28;;;;;;;;;15.25;15.25;;;;;;;;5074241;28;51050;-66
2022/03/11 06:23:53;;;;;;;;;14.00;13.25;;;;;;;;5074446;27;50935;-66
2022/03/11 06:26:18;;;;;;;;;14.25;13.25;;;;;;;;5073850;28;51035;-66
2022/03/11 06:28:44;;;;;;;;;11.25;10.50;;;;;;;;5074596;28;52014;-66
2022/03/11 06:31:11;;;;;;;;;13.00;11.50;;;;;;;;5073997;28;51166;-66
2022/03/11 06:33:36;;;;;;;;;16.75;11.75;;;;;;;;5071369;27;51299;-66
2022/03/11 06:36:01;;;;;;;;;11.00;11.00;;;;;;;;5063523;27;51485;-66
2022/03/11 06:38:26;;;;;;;;;13.00;12.50;;;;;;;;5073578;27;52293;-66
2022/03/11 06:40:53;;;;;;;;;13.75;13.75;;;;;;;;5072618;28;51153;-67
2022/03/11 06:43:19;;;;;;;;;14.50;12.75;;;;;;;;5072188;27;51270;-66
2022/03/11 06:45:44;;;;;;;;;12.75;11.00;;;;;;;;5073627;27;50904;-67
2022/03/11 06:48:09;;;;;;;;;14.75;11.00;;;;;;;;5069141;27;52345;-67
2022/03/11 06:50:35;;;;;;;;;11.75;10.00;;;;;;;;5070446;28;51052;-67
2022/03/11 06:53:00;;;;;;;;;38.75;34.75;;;;;;;;5068477;27;51069;-67
2022/03/11 06:55:25;;;;;;;;;13.75;13.25;;;;;;;;5072100;27;51338;-67
2022/03/11 06:57:50;;;;;;;;;4.75;4.50;;;;;;;;5083446;27;53604;-67
2022/03/11 07:00:16;;;;;;;;;11.50;11.50;;;;;;;;5067240;27;51177;-68
2022/03/11 07:02:42;;;;;;;;;11.00;11.00;;;;;;;;5071576;27;51286;-67
2022/03/11 07:05:08;;;;;;;;;9.25;9.25;;;;;;;;5060345;27;51215;-68
2022/03/11 07:07:33;;;;;;;;;10.25;10.00;;;;;;;;5072190;28;52129;-68
2022/03/11 07:09:59;;;;;;;;;8.25;8.00;;;;;;;;5070135;27;51062;-69
2022/03/11 07:12:24;;;;;;;;;10.00;10.00;;;;;;;;5069129;28;51130;-66
2022/03/11 07:14:50;;;;;;;;;10.00;9.00;;;;;;;;5072666;28;51301;-67
2022/03/11 07:17:15;;;;;;;;;10.50;10.50;;;;;;;;5069454;28;53696;-68
2022/03/11 07:19:40;;;;;;;;;13.50;11.00;;;;;;;;5071771;28;51117;-66
2022/03/11 07:22:06;;;;;;;;;11.25;11.00;;;;;;;;5070394;28;51213;-68
2022/03/11 07:24:32;;;;;;;;;9.75;9.75;;;;;;;;5076494;27;51380;-68
2022/03/11 07:26:58;;;;;;;;;12.25;11.25;;;;;;;;5068503;27;51916;-68
2022/03/11 07:29:23;;;;;;;;;10.00;9.50;;;;;;;;5068493;27;51260;-66
2022/03/11 07:31:49;;;;;;;;;11.25;10.50;;;;;;;;5065992;27;51036;-68
2022/03/11 07:34:14;;;;;;;;;11.75;10.25;;;;;;;;5053710;28;51336;-68
2022/03/11 07:36:39;;;;;;;;;9.50;9.25;;;;;;;;5056496;27;52740;-67
2022/03/11 07:39:06;;;;;;;;;8.50;8.50;;;;;;;;5072078;28;50966;-67
2022/03/11 07:41:32;;;;;;;;;9.50;8.75;;;;;;;;5071854;28;51164;-67
2022/03/11 07:43:57;;;;;;;;;9.50;9.25;;;;;;;;5073513;28;51210;-67
2022/03/11 07:46:23;;;;;;;;;9.25;9.25;;;;;;;;5071642;28;52767;-66
2022/03/11 07:48:49;;;;;;;;;9.25;9.25;;;;;;;;5073624;28;50985;-66
2022/03/11 07:51:14;;;;;;;;;9.00;8.75;;;;;;;;5072016;28;51040;-67
2022/03/11 07:53:39;;;;;;;;;13.00;11.75;;;;;;;;5074185;28;50908;-66
2022/03/11 07:56:06;;;;;;;;;8.50;7.25;;;;;;;;5073528;28;52069;-67
2022/03/11 07:58:31;;;;;;;;;10.50;9.00;;;;;;;;5076547;27;51108;-66
2022/03/11 08:00:57;;;;;;;;;6.00;5.25;;;;;;;;5071988;28;51761;-66
2022/03/11 08:03:22;;;;;;;;;5.00;5.00;;;;;;;;5073581;27;51068;-67
2022/03/11 08:05:48;;;;;;;;;9.75;8.75;;;;;;;;5073112;28;51735;-67
2022/03/11 08:08:15;;;;;;;;;6.00;6.00;;;;;;;;5071573;28;50905;-66
2022/03/11 08:10:41;;;;;;;;;6.25;6.25;;;;;;;;5088409;27;51038;-67
2022/03/11 08:13:09;;;;;;;;;8.50;7.00;;;;;;;;5072796;28;51195;-67
2022/03/11 08:15:35;;;;;;;;;8.50;8.00;;;;;;;;5070683;28;53666;-66
2022/03/11 08:18:03;;;;;;;;;7.75;7.75;;;;;;;;5059163;28;51713;-67
2022/03/11 08:20:29;;;;;;;;;9.00;8.00;;;;;;;;5071008;28;51031;-67
2022/03/11 08:22:54;;;;;;;;;7.50;7.25;;;;;;;;5072977;28;50961;-66
2022/03/11 08:25:20;;;;;;;;;8.50;7.50;;;;;;;;5071180;28;53011;-69
2022/03/11 08:27:45;;;;;;;;;7.67;7.67;;;;;;;;5073050;28;50882;-67
2022/03/11 08:30:11;;;;;;;;;8.00;7.67;;;;;;;;5071123;28;51136;-67
2022/03/11 08:32:37;;;;;;;;;7.75;7.00;;;;;;;;5072788;28;50950;-67
2022/03/11 08:35:03;;;;;;;;;12.25;11.00;;;;;;;;5072423;28;50988;-67
2022/03/11 08:37:28;;;;;;;;;8.00;8.00;;;;;;;;5071888;28;51083;-67
2022/03/11 08:39:53;;;;;;;;;5.00;5.00;;;;;;;;5072694;28;50873;-67
2022/03/11 08:42:19;;;;;;;;;7.00;7.00;;;;;;;;5071533;28;51080;-67
2022/03/11 08:44:44;;;;;;;;;8.67;8.67;;;;;;;;5072117;28;50964;-66
2022/03/11 08:47:09;;;;;;;;;7.67;7.00;;;;;;;;5072183;28;51033;-66
2022/03/11 08:49:35;;;;;;;;;9.00;8.67;;;;;;;;5075400;27;51096;-67
2022/03/11 08:52:00;;;;;;;;;8.00;8.00;;;;;;;;5076112;28;51313;-66
2022/03/11 08:54:26;;;;;;;;;7.00;6.33;;;;;;;;5075485;28;50992;-66
2022/03/11 08:56:53;;;;;;;;;10.00;9.67;;;;;;;;5075388;28;51075;-68
2022/03/11 08:59:21;;;;;;;;;9.00;9.00;;;;;;;;5075334;28;50856;-66
2022/03/11 09:01:47;;;;;;;;;9.00;9.00;;;;;;;;5075051;28;51103;-66
2022/03/11 09:04:12;;;;;;;;;8.67;8.33;;;;;;;;5073330;28;53832;-66
2022/03/11 09:06:37;;;;;;;;;7.67;7.33;;;;;;;;5075278;28;50990;-67
2022/03/11 09:09:03;;;;;;;;;8.33;7.00;;;;;;;;5075013;28;51146;-67
2022/03/11 09:11:28;;;;;;;;;6.33;6.00;;;;;;;;5075406;28;51348;-66
2022/03/11 09:13:54;;;;;;;;;7.33;6.67;;;;;;;;5074901;28;51200;-66
2022/03/11 09:16:19;;;;;;;;;7.67;7.00;;;;;;;;5074949;28;50964;-66
2022/03/11 09:18:44;;;;;;;;;10.00;9.00;;;;;;;;5075248;28;51262;-67
2022/03/11 09:21:10;;;;;;;;;6.67;6.33;;;;;;;;5075287;28;50959;-66
2022/03/11 09:23:35;;;;;;;;;6.00;5.00;;;;;;;;5074854;28;51820;-66
2022/03/11 09:26:00;;;;;;;;;7.33;7.00;;;;;;;;5075481;28;51142;-67
2022/03/11 09:28:25;;;;;;;;;7.00;7.00;;;;;;;;5074162;28;51049;-68
2022/03/11 09:30:51;;;;;;;;;8.00;8.00;;;;;;;;5075709;28;50870;-67
2022/03/11 09:33:16;;;;;;;;;7.33;7.00;;;;;;;;5075181;28;51932;-67
2022/03/11 09:35:42;;;;;;;;;7.33;6.00;;;;;;;;5075264;28;50982;-66
2022/03/11 09:38:07;;;;;;;;;9.00;8.00;;;;;;;;5060523;27;51170;-67
2022/03/11 09:40:33;;;;;;;;;6.00;6.00;;;;;;;;5075756;28;50824;-63
2022/03/11 09:42:59;;;;;;;;;7.00;7.00;;;;;;;;5074513;28;51838;-63
2022/03/11 09:45:25;;;;;;;;;5.67;5.67;;;;;;;;5073017;28;51053;-64
2022/03/11 09:47:52;;;;;;;;;7.00;6.67;;;;;;;;5073283;28;51147;-64
2022/03/11 09:50:19;;;;;;;;;7.33;6.67;;;;;;;;5075101;28;51186;-65
2022/03/11 09:52:46;;;;;;;;;8.67;7.67;;;;;;;;5070381;28;54000;-64
2022/03/11 09:55:11;;;;;;;;;7.33;6.67;;;;;;;;5074126;28;50993;-64
2022/03/11 09:57:36;;;;;;;;;4.33;4.33;;;;;;;;5072569;28;51135;-64
2022/03/11 10:00:04;;;;;;;;;5.33;5.00;;;;;;;;5073646;28;51189;-64
2022/03/11 10:02:29;;;;;;;;;7.00;7.00;;;;;;;;5072291;28;51998;-63
2022/03/11 10:04:57;;;;;;;;;8.33;6.33;;;;;;;;5074096;28;50832;-64
2022/03/11 10:07:26;;;;;;;;;4.00;4.00;;;;;;;;5074158;28;51009;-64
2022/03/11 10:09:52;;;;;;;;;6.00;6.00;;;;;;;;5074025;28;51206;-64
2022/03/11 10:12:21;;;;;;;;;6.00;5.00;;;;;;;;5073449;28;50900;-64
2022/03/11 10:14:53;;;;;;;;;2.67;2.67;;;;;;;;5072838;28;51108;-64
2022/03/11 10:17:19;;;;;;;;;6.00;6.00;;;;;;;;5073652;28;50894;-64
2022/03/11 10:19:55;;;;;;;;;6.67;6.00;;;;;;;;5073850;27;51215;-65
2022/03/11 10:22:23;;;;;;;;;4.33;4.00;;;;;;;;5072191;28;53692;-64
2022/03/11 10:24:48;;;;;;;;;7.67;6.67;;;;;;;;5073463;28;51091;-64
2022/03/11 10:27:14;;;;;;;;;6.00;6.00;;;;;;;;5072257;28;51141;-65
2022/03/11 10:29:39;;;;;;;;;6.67;6.67;;;;;;;;5072280;28;51295;-65
2022/03/11 10:32:06;;;;;;;;;35.00;32.00;;;;;;;;5071487;28;51076;-63
2022/03/11 10:34:33;;;;;;;;;7.00;6.67;;;;;;;;5073392;28;51128;-64
2022/03/11 10:37:01;;;;;;;;;7.67;7.00;;;;;;;;5072394;27;51103;-65
2022/03/11 10:39:36;;;;;;;;;7.67;7.00;;;;;;;;5071768;28;51294;-64
2022/03/11 10:42:14;;;;;;;;;8.00;7.00;;;;;;;;5068300;28;51650;-65
2022/03/11 10:44:40;;;;;;;;;6.33;6.33;;;;;;;;5046320;28;51208;-64
2022/03/11 10:47:32;;;;;;;;;10.25;10.25;;;;;;;;5073167;27;51146;-65
2022/03/11 10:49:59;;;;;;;;;6.00;5.67;;;;;;;;5071131;27;50959;-65
2022/03/11 10:52:36;;;;;;;;;7.00;7.00;;;;;;;;5073226;27;52035;-65
2022/03/11 10:55:15;;;;;;;;;4.33;4.33;;;;;;;;5071676;28;50969;-64
2022/03/11 10:57:41;;;;;;;;;7.33;6.67;;;;;;;;5073213;28;51049;-64
2022/03/11 11:00:23;;;;;;;;;7.00;6.33;;;;;;;;5073147;28;51111;-65
2022/03/11 11:02:50;;;;;;;;;7.00;6.67;;;;;;;;5055029;28;53149;-64
2022/03/11 11:05:15;;;;;;;;;6.33;5.67;;;;;;;;5073834;27;50818;-63
2022/03/11 11:07:41;;;;;;;;;5.33;5.33;;;;;;;;5072270;28;51125;-65
2022/03/11 11:10:07;;;;;;;;;9.33;8.33;;;;;;;;5074084;28;51136;-65
2022/03/11 11:12:32;;;;;;;;;8.00;7.33;;;;;;;;5072195;28;51220;-65
2022/03/11 11:14:58;;;;;;;;;6.33;5.00;;;;;;;;5072433;28;51142;-64
2022/03/11 11:17:23;;;;;;;;;5.00;5.00;;;;;;;;5071494;28;51084;-64
2022/03/11 11:19:49;;;;;;;;;5.00;5.00;;;;;;;;5073407;28;51371;-64
2022/03/11 11:22:15;;;;;;;;;7.67;7.00;;;;;;;;5072613;27;52932;-65
2022/03/11 11:24:41;;;;;;;;;20.25;18.00;;;;;;;;5071421;28;51171;-63
2022/03/11 11:27:06;;;;;;;;;7.00;6.67;;;;;;;;5073303;27;50876;-64
2022/03/11 11:29:33;;;;;;;;;6.00;5.33;;;;;;;;5073255;28;51251;-64
2022/03/11 11:32:00;;;;;;;;;6.67;5.33;;;;;;;;5070818;28;53307;-64
2022/03/11 11:34:25;;;;;;;;;7.33;7.33;;;;;;;;5072893;28;51014;-64
2022/03/11 11:36:51;;;;;;;;;7.00;7.00;;;;;;;;5071139;28;51060;-65
2022/03/11 11:39:16;;;;;;;;;7.00;6.75;;;;;;;;5058515;27;51399;-65
2022/03/11 11:41:49;;;;;;;;;8.00;8.00;;;;;;;;5072371;28;51025;-64
2022/03/11 11:44:16;;;;;;;;;7.00;7.00;;;;;;;;5072531;27;50944;-65
2022/03/11 11:46:41;;;;;;;;;5.67;5.67;;;;;;;;5072330;27;50956;-65
2022/03/11 11:49:12;;;;;;;;;8.00;8.00;;;;;;;;5072438;27;51089;-65
2022/03/11 11:51:38;;;;;;;;;7.00;6.00;;;;;;;;5070581;28;52016;-65
2022/03/11 11:54:13;;;;;;;;;6.00;5.67;;;;;;;;5072241;28;50887;-65
2022/03/11 11:56:40;;;;;;;;;6.33;6.33;;;;;;;;5072642;27;50871;-65
2022/03/11 11:59:16;;;;;;;;;7.00;7.00;;;;;;;;5073011;28;50866;-65
2022/03/11 12:01:46;;;;;;;;;8.33;8.00;;;;;;;;5071009;28;51923;-66
2022/03/11 12:04:17;;;;;;;;;10.00;8.00;;;;;;;;5071806;28;50827;-65
2022/03/11 12:06:59;;;;;;;;;9.67;9.33;;;;;;;;5073650;27;51156;-65
2022/03/11 12:14:57;;;;;;;;;7.33;7.33;;;;;;;;5071289;28;50969;-65
2022/03/11 12:17:37;;;;;;;;;6.67;6.67;;;;;;;;5068490;28;51201;-66
2022/03/11 12:20:21;;;;;;;;;7.00;6.33;;;;;;;;5070746;28;50917;-65
2022/03/11 12:23:05;;;;;;;;;8.00;8.00;;;;;;;;5073164;27;52102;-65
2022/03/11 12:25:40;;;;;;;;;9.00;9.00;;;;;;;;5078887;28;50975;-65
2022/03/11 12:28:09;;;;;;;;;11.33;11.33;;;;;;;;5078265;28;51168;-65
2022/03/11 12:30:35;;;;;;;;;14.50;13.75;;;;;;;;5078649;28;50967;-65
2022/03/11 12:33:04;;;;;;;;;14.25;14.25;;;;;;;;5076493;28;52078;-65
2022/03/11 12:35:29;;;;;;;;;12.00;10.67;;;;;;;;5077284;28;51034;-65
2022/03/11 12:37:55;;;;;;;;;11.00;11.00;;;;;;;;5059550;28;50946;-65
2022/03/11 12:40:23;;;;;;;;;8.00;8.00;;;;;;;;5077871;28;51413;-65
2022/03/11 12:42:49;;;;;;;;;13.00;11.67;;;;;;;;5077224;28;52917;-65
2022/03/11 12:45:35;;;;;;;;;10.00;9.33;;;;;;;;5077436;28;51031;-65
2022/03/11 12:48:00;;;;;;;;;15.50;14.00;;;;;;;;5066826;27;51130;-64
2022/03/11 12:50:26;;;;;;;;;10.00;10.00;;;;;;;;5078780;28;51208;-65
2022/03/11 12:52:53;;;;;;;;;9.00;8.33;;;;;;;;5078929;28;51753;-65
2022/03/11 12:55:20;;;;;;;;;9.67;9.00;;;;;;;;5078421;28;51118;-65
2022/03/11 12:57:48;;;;;;;;;7.33;7.00;;;;;;;;5078162;28;51662;-65
2022/03/11 13:00:18;;;;;;;;;6.50;5.50;;;;;;;;5078046;28;51056;-64
2022/03/11 13:02:43;;;;;;;;;9.00;8.67;;;;;;;;5078020;28;52316;-64
2022/03/11 13:05:17;;;;;;;;;12.00;11.50;;;;;;;;5076012;28;51015;-65
2022/03/11 13:07:42;;;;;;;;;12.00;11.00;;;;;;;;5076855;28;51375;-65
2022/03/11 13:10:22;;;;;;;;;9.25;8.75;;;;;;;;5076639;28;51266;-64
2022/03/11 13:12:50;;;;;;;;;19.00;19.00;;;;;;;;5079482;27;52152;-64
2022/03/11 13:15:22;;;;;;;;;10.75;9.75;;;;;;;;5079353;27;50959;-64
2022/03/11 13:17:47;;;;;;;;;10.75;10.00;;;;;;;;5075721;28;51135;-64
2022/03/11 13:20:31;;;;;;;;;7.00;6.00;;;;;;;;5078106;27;50940;-65
2022/03/11 13:22:58;;;;;;;;;8.50;7.50;;;;;;;;5077604;27;52113;-64
2022/03/11 13:25:28;;;;;;;;;14.00;12.50;;;;;;;;5076330;28;50990;-65
2022/03/11 13:27:53;;;;;;;;;10.00;9.00;;;;;;;;5059355;28;51030;-64
2022/03/11 13:30:32;;;;;;;;;7.25;7.00;;;;;;;;5077516;28;51116;-65
2022/03/11 13:33:09;;;;;;;;;8.25;8.00;;;;;;;;5075849;28;53580;-65
2022/03/11 13:35:34;;;;;;;;;9.50;9.50;;;;;;;;5068307;28;50886;-65
2022/03/11 13:37:59;;;;;;;;;9.50;9.00;;;;;;;;5074194;28;50915;-65
2022/03/11 13:40:25;;;;;;;;;12.75;11.75;;;;;;;;5060211;27;51409;-66
2022/03/11 13:42:54;;;;;;;;;10.00;8.25;;;;;;;;5072955;28;53589;-65
2022/03/11 13:45:25;;;;;;;;;11.75;10.25;;;;;;;;5073025;28;51279;-64
2022/03/11 13:48:03;;;;;;;;;12.25;10.00;;;;;;;;5073993;27;51169;-64
2022/03/11 13:50:28;;;;;;;;;11.00;10.50;;;;;;;;5060378;27;51184;-63
2022/03/11 13:52:57;;;;;;;;;12.75;12.25;;;;;;;;5062776;27;52196;-65
2022/03/11 13:55:30;;;;;;;;;11.75;11.00;;;;;;;;5065754;27;51155;-65
2022/03/11 13:58:11;;;;;;;;;9.75;9.00;;;;;;;;5068511;27;51253;-63
2022/03/11 14:00:36;;;;;;;;;14.50;13.75;;;;;;;;5065655;28;51216;-64
2022/03/11 14:03:11;;;;;;;;;10.50;10.50;;;;;;;;5063218;28;52592;-64
2022/03/11 14:05:39;;;;;;;;;12.75;11.75;;;;;;;;5065307;27;51172;-63
2022/03/11 14:08:05;;;;;;;;;12.50;10.75;;;;;;;;5065785;28;51159;-66
2022/03/11 14:10:38;;;;;;;;;13.25;11.25;;;;;;;;5068397;28;51162;-65
2022/03/11 14:13:05;;;;;;;;;11.00;10.75;;;;;;;;5067766;28;52941;-65
2022/03/11 14:15:32;;;;;;;;;13.00;11.75;;;;;;;;5069602;27;51213;-65
2022/03/11 14:17:57;;;;;;;;;11.00;10.50;;;;;;;;5070449;27;51080;-65
2022/03/11 14:20:25;;;;;;;;;11.75;10.25;;;;;;;;5069132;27;51401;-65
2022/03/11 14:22:50;;;;;;;;;10.00;10.00;;;;;;;;5069360;27;51719;-65
2022/03/11 14:25:15;;;;;;;;;8.67;8.33;;;;;;;;5067505;28;51190;-65
2022/03/11 14:27:40;;;;;;;;;8.33;8.00;;;;;;;;5068421;28;52074;-66